sensor_id;sensor_type;location;lat;lon;timestamp;P1;durP1;ratioP1;P2;durP2;ratioP2
71965;SDS011;59836;52.132;5.442;2023-05-14T00:00:20;15.43;;;9.88;;
71965;SDS011;59836;52.132;5.442;2023-05-14T00:02:47;15.07;;;10.13;;
71965;SDS011;59836;52.132;5.442;2023-05-14T00:05:14;14.98;;;10.45;;
71965;SDS011;59836;52.132;5.442;2023-05-14T00:07:40;14.03;;;9.87;;
71965;SDS011;59836;52.132;5.442;2023-05-14T00:10:07;16.48;;;10.30;;
71965;SDS011;59836;52.132;5.442;2023-05-14T00:12:33;13.73;;;9.73;;
71965;SDS011;59836;52.132;5.442;2023-05-14T00:15:00;16.27;;;10.18;;
71965;SDS011;59836;52.132;5.442;2023-05-14T00:17:26;16.17;;;10.40;;
71965;SDS011;59836;52.132;5.442;2023-05-14T00:19:53;17.03;;;9.87;;
71965;SDS011;59836;52.132;5.442;2023-05-14T00:22:19;16.23;;;10.07;;
71965;SDS011;59836;52.132;5.442;2023-05-14T00:24:46;16.45;;;10.15;;
71965;SDS011;59836;52.132;5.442;2023-05-14T00:27:12;15.32;;;10.23;;
71965;SDS011;59836;52.132;5.442;2023-05-14T00:29:39;14.80;;;9.45;;
71965;SDS011;59836;52.132;5.442;2023-05-14T00:32:05;15.23;;;9.97;;
71965;SDS011;59836;52.132;5.442;2023-05-14T00:34:32;13.55;;;9.80;;
71965;SDS011;59836;52.132;5.442;2023-05-14T00:36:58;15.45;;;9.43;;
71965;SDS011;59836;52.132;5.442;2023-05-14T00:39:25;14.57;;;9.52;;
71965;SDS011;59836;52.132;5.442;2023-05-14T00:41:51;15.88;;;10.23;;
71965;SDS011;59836;52.132;5.442;2023-05-14T00:44:17;14.93;;;9.00;;
71965;SDS011;59836;52.132;5.442;2023-05-14T00:46:44;14.20;;;9.75;;
71965;SDS011;59836;52.132;5.442;2023-05-14T00:49:10;15.13;;;10.32;;
71965;SDS011;59836;52.132;5.442;2023-05-14T00:51:37;14.55;;;9.77;;
71965;SDS011;59836;52.132;5.442;2023-05-14T00:54:04;15.70;;;9.98;;
71965;SDS011;59836;52.132;5.442;2023-05-14T00:56:31;16.00;;;10.67;;
71965;SDS011;59836;52.132;5.442;2023-05-14T00:58:58;15.18;;;9.40;;
71965;SDS011;59836;52.132;5.442;2023-05-14T01:01:24;13.52;;;9.18;;
71965;SDS011;59836;52.132;5.442;2023-05-14T01:03:53;13.90;;;9.65;;
71965;SDS011;59836;52.132;5.442;2023-05-14T01:06:28;17.35;;;9.75;;
71965;SDS011;59836;52.132;5.442;2023-05-14T01:14:27;14.30;;;9.18;;
71965;SDS011;59836;52.132;5.442;2023-05-14T01:16:59;12.73;;;9.23;;
71965;SDS011;59836;52.132;5.442;2023-05-14T01:19:33;12.43;;;8.68;;
71965;SDS011;59836;52.132;5.442;2023-05-14T01:22:03;14.87;;;8.87;;
71965;SDS011;59836;52.132;5.442;2023-05-14T01:24:29;12.18;;;8.75;;
71965;SDS011;59836;52.132;5.442;2023-05-14T01:26:57;17.95;;;10.35;;
71965;SDS011;59836;52.132;5.442;2023-05-14T01:29:32;15.95;;;9.30;;
71965;SDS011;59836;52.132;5.442;2023-05-14T01:32:02;13.93;;;8.60;;
71965;SDS011;59836;52.132;5.442;2023-05-14T01:34:32;16.43;;;9.83;;
71965;SDS011;59836;52.132;5.442;2023-05-14T01:37:01;14.65;;;9.65;;
71965;SDS011;59836;52.132;5.442;2023-05-14T01:39:29;16.45;;;9.82;;
71965;SDS011;59836;52.132;5.442;2023-05-14T01:41:57;14.77;;;9.50;;
71965;SDS011;59836;52.132;5.442;2023-05-14T01:44:25;13.35;;;9.45;;
71965;SDS011;59836;52.132;5.442;2023-05-14T01:46:51;14.80;;;9.27;;
71965;SDS011;59836;52.132;5.442;2023-05-14T01:49:18;15.45;;;9.15;;
71965;SDS011;59836;52.132;5.442;2023-05-14T01:51:44;13.88;;;9.93;;
71965;SDS011;59836;52.132;5.442;2023-05-14T01:54:11;15.43;;;8.95;;
71965;SDS011;59836;52.132;5.442;2023-05-14T01:56:37;14.30;;;9.57;;
71965;SDS011;59836;52.132;5.442;2023-05-14T01:59:03;14.60;;;9.10;;
71965;SDS011;59836;52.132;5.442;2023-05-14T02:01:30;15.65;;;8.95;;
71965;SDS011;59836;52.132;5.442;2023-05-14T02:03:56;18.63;;;9.43;;
71965;SDS011;59836;52.132;5.442;2023-05-14T02:06:23;14.98;;;9.45;;
71965;SDS011;59836;52.132;5.442;2023-05-14T02:08:49;14.65;;;9.15;;
71965;SDS011;59836;52.132;5.442;2023-05-14T02:11:16;16.30;;;9.47;;
71965;SDS011;59836;52.132;5.442;2023-05-14T02:13:42;13.73;;;9.02;;
71965;SDS011;59836;52.132;5.442;2023-05-14T02:16:08;16.50;;;10.32;;
71965;SDS011;59836;52.132;5.442;2023-05-14T02:18:35;14.90;;;8.80;;
71965;SDS011;59836;52.132;5.442;2023-05-14T02:21:01;14.95;;;9.75;;
71965;SDS011;59836;52.132;5.442;2023-05-14T02:23:28;14.30;;;10.07;;
71965;SDS011;59836;52.132;5.442;2023-05-14T02:26:05;18.90;;;9.57;;
71965;SDS011;59836;52.132;5.442;2023-05-14T02:28:33;13.20;;;8.65;;
71965;SDS011;59836;52.132;5.442;2023-05-14T02:30:59;16.30;;;9.57;;
71965;SDS011;59836;52.132;5.442;2023-05-14T02:33:26;15.13;;;9.00;;
71965;SDS011;59836;52.132;5.442;2023-05-14T02:35:53;15.70;;;9.57;;
71965;SDS011;59836;52.132;5.442;2023-05-14T02:38:19;16.25;;;9.65;;
71965;SDS011;59836;52.132;5.442;2023-05-14T02:40:46;16.27;;;9.57;;
71965;SDS011;59836;52.132;5.442;2023-05-14T02:43:12;13.73;;;8.95;;
71965;SDS011;59836;52.132;5.442;2023-05-14T02:45:38;15.38;;;8.88;;
71965;SDS011;59836;52.132;5.442;2023-05-14T02:48:05;18.00;;;9.97;;
71965;SDS011;59836;52.132;5.442;2023-05-14T02:50:31;13.38;;;9.45;;
71965;SDS011;59836;52.132;5.442;2023-05-14T02:52:58;16.65;;;9.82;;
71965;SDS011;59836;52.132;5.442;2023-05-14T02:55:25;13.35;;;9.45;;
71965;SDS011;59836;52.132;5.442;2023-05-14T02:57:51;16.30;;;9.63;;
71965;SDS011;59836;52.132;5.442;2023-05-14T03:00:18;15.00;;;9.20;;
71965;SDS011;59836;52.132;5.442;2023-05-14T03:02:45;16.63;;;9.18;;
71965;SDS011;59836;52.132;5.442;2023-05-14T03:05:12;16.10;;;9.75;;
71965;SDS011;59836;52.132;5.442;2023-05-14T03:07:38;16.55;;;9.98;;
71965;SDS011;59836;52.132;5.442;2023-05-14T03:10:05;16.15;;;9.35;;
71965;SDS011;59836;52.132;5.442;2023-05-14T03:12:31;14.23;;;9.40;;
71965;SDS011;59836;52.132;5.442;2023-05-14T03:14:58;16.73;;;9.88;;
71965;SDS011;59836;52.132;5.442;2023-05-14T03:17:24;15.48;;;8.98;;
71965;SDS011;59836;52.132;5.442;2023-05-14T03:19:50;13.77;;;9.38;;
71965;SDS011;59836;52.132;5.442;2023-05-14T03:22:17;15.55;;;9.43;;
71965;SDS011;59836;52.132;5.442;2023-05-14T03:24:43;14.70;;;8.67;;
71965;SDS011;59836;52.132;5.442;2023-05-14T03:27:10;16.17;;;8.88;;
71965;SDS011;59836;52.132;5.442;2023-05-14T03:29:36;18.55;;;9.65;;
71965;SDS011;59836;52.132;5.442;2023-05-14T03:32:02;17.60;;;8.73;;
71965;SDS011;59836;52.132;5.442;2023-05-14T03:34:29;12.32;;;8.88;;
71965;SDS011;59836;52.132;5.442;2023-05-14T03:36:55;14.70;;;8.60;;
71965;SDS011;59836;52.132;5.442;2023-05-14T03:39:22;16.08;;;8.77;;
71965;SDS011;59836;52.132;5.442;2023-05-14T03:41:48;15.50;;;9.43;;
71965;SDS011;59836;52.132;5.442;2023-05-14T03:44:15;19.73;;;10.20;;
71965;SDS011;59836;52.132;5.442;2023-05-14T03:46:41;16.17;;;8.82;;
71965;SDS011;59836;52.132;5.442;2023-05-14T03:49:07;14.43;;;8.80;;
71965;SDS011;59836;52.132;5.442;2023-05-14T03:51:34;17.08;;;9.18;;
71965;SDS011;59836;52.132;5.442;2023-05-14T03:54:01;15.13;;;8.65;;
71965;SDS011;59836;52.132;5.442;2023-05-14T03:56:28;22.73;;;9.43;;
71965;SDS011;59836;52.132;5.442;2023-05-14T03:58:54;17.65;;;8.57;;
71965;SDS011;59836;52.132;5.442;2023-05-14T04:01:21;14.13;;;8.80;;
71965;SDS011;59836;52.132;5.442;2023-05-14T04:03:47;14.65;;;8.73;;
71965;SDS011;59836;52.132;5.442;2023-05-14T04:06:14;14.23;;;8.73;;
71965;SDS011;59836;52.132;5.442;2023-05-14T04:08:41;14.82;;;9.27;;
71965;SDS011;59836;52.132;5.442;2023-05-14T04:11:07;14.43;;;8.73;;
71965;SDS011;59836;52.132;5.442;2023-05-14T04:13:34;15.40;;;9.27;;
71965;SDS011;59836;52.132;5.442;2023-05-14T04:16:00;13.82;;;9.57;;
71965;SDS011;59836;52.132;5.442;2023-05-14T04:18:26;17.23;;;8.98;;
71965;SDS011;59836;52.132;5.442;2023-05-14T04:20:53;16.92;;;8.68;;
71965;SDS011;59836;52.132;5.442;2023-05-14T04:23:20;17.08;;;8.82;;
71965;SDS011;59836;52.132;5.442;2023-05-14T04:25:46;16.77;;;8.17;;
71965;SDS011;59836;52.132;5.442;2023-05-14T04:28:13;13.43;;;8.05;;
71965;SDS011;59836;52.132;5.442;2023-05-14T04:30:40;15.75;;;8.80;;
71965;SDS011;59836;52.132;5.442;2023-05-14T04:33:06;17.60;;;8.90;;
71965;SDS011;59836;52.132;5.442;2023-05-14T04:35:33;12.63;;;7.97;;
71965;SDS011;59836;52.132;5.442;2023-05-14T04:37:59;14.23;;;8.13;;
71965;SDS011;59836;52.132;5.442;2023-05-14T04:40:25;12.98;;;7.35;;
71965;SDS011;59836;52.132;5.442;2023-05-14T04:42:52;17.10;;;8.13;;
71965;SDS011;59836;52.132;5.442;2023-05-14T04:45:19;12.48;;;7.80;;
71965;SDS011;59836;52.132;5.442;2023-05-14T04:47:45;15.27;;;7.93;;
71965;SDS011;59836;52.132;5.442;2023-05-14T04:50:12;15.47;;;8.03;;
71965;SDS011;59836;52.132;5.442;2023-05-14T04:52:38;16.02;;;8.23;;
71965;SDS011;59836;52.132;5.442;2023-05-14T04:55:05;13.85;;;7.72;;
71965;SDS011;59836;52.132;5.442;2023-05-14T04:57:32;11.88;;;7.07;;
71965;SDS011;59836;52.132;5.442;2023-05-14T04:59:58;13.10;;;7.65;;
71965;SDS011;59836;52.132;5.442;2023-05-14T05:02:25;16.07;;;7.77;;
71965;SDS011;59836;52.132;5.442;2023-05-14T05:04:51;15.10;;;7.68;;
71965;SDS011;59836;52.132;5.442;2023-05-14T05:07:17;13.70;;;8.00;;
71965;SDS011;59836;52.132;5.442;2023-05-14T05:09:44;16.38;;;7.90;;
71965;SDS011;59836;52.132;5.442;2023-05-14T05:12:10;15.43;;;7.50;;
71965;SDS011;59836;52.132;5.442;2023-05-14T05:14:37;13.00;;;6.40;;
71965;SDS011;59836;52.132;5.442;2023-05-14T05:17:03;14.80;;;8.15;;
71965;SDS011;59836;52.132;5.442;2023-05-14T05:19:30;14.20;;;7.97;;
71965;SDS011;59836;52.132;5.442;2023-05-14T05:22:08;12.52;;;7.82;;
71965;SDS011;59836;52.132;5.442;2023-05-14T05:24:35;11.27;;;7.00;;
71965;SDS011;59836;52.132;5.442;2023-05-14T05:27:01;10.03;;;7.00;;
71965;SDS011;59836;52.132;5.442;2023-05-14T05:29:28;13.48;;;7.75;;
71965;SDS011;59836;52.132;5.442;2023-05-14T05:31:54;11.68;;;6.95;;
71965;SDS011;59836;52.132;5.442;2023-05-14T05:34:21;13.40;;;7.70;;
71965;SDS011;59836;52.132;5.442;2023-05-14T05:36:47;13.20;;;7.53;;
71965;SDS011;59836;52.132;5.442;2023-05-14T05:39:14;15.00;;;7.40;;
71965;SDS011;59836;52.132;5.442;2023-05-14T05:41:40;10.50;;;7.20;;
71965;SDS011;59836;52.132;5.442;2023-05-14T05:44:07;12.80;;;7.80;;
71965;SDS011;59836;52.132;5.442;2023-05-14T05:46:33;12.70;;;7.45;;
71965;SDS011;59836;52.132;5.442;2023-05-14T05:49:00;12.32;;;7.38;;
71965;SDS011;59836;52.132;5.442;2023-05-14T05:51:26;12.20;;;7.50;;
71965;SDS011;59836;52.132;5.442;2023-05-14T05:53:53;12.32;;;7.70;;
71965;SDS011;59836;52.132;5.442;2023-05-14T05:56:19;12.15;;;6.93;;
71965;SDS011;59836;52.132;5.442;2023-05-14T05:58:47;10.93;;;6.88;;
71965;SDS011;59836;52.132;5.442;2023-05-14T06:01:13;13.10;;;7.65;;
71965;SDS011;59836;52.132;5.442;2023-05-14T06:03:39;11.93;;;6.93;;
71965;SDS011;59836;52.132;5.442;2023-05-14T06:06:06;11.20;;;7.10;;
71965;SDS011;59836;52.132;5.442;2023-05-14T06:08:32;13.40;;;6.93;;
71965;SDS011;59836;52.132;5.442;2023-05-14T06:10:59;14.55;;;7.15;;
71965;SDS011;59836;52.132;5.442;2023-05-14T06:13:25;12.15;;;7.18;;
71965;SDS011;59836;52.132;5.442;2023-05-14T06:15:51;11.70;;;7.13;;
71965;SDS011;59836;52.132;5.442;2023-05-14T06:18:18;11.80;;;7.30;;
71965;SDS011;59836;52.132;5.442;2023-05-14T06:20:44;12.05;;;6.97;;
71965;SDS011;59836;52.132;5.442;2023-05-14T06:23:11;15.80;;;7.30;;
71965;SDS011;59836;52.132;5.442;2023-05-14T06:25:37;11.98;;;7.50;;
71965;SDS011;59836;52.132;5.442;2023-05-14T06:28:04;12.67;;;7.93;;
71965;SDS011;59836;52.132;5.442;2023-05-14T06:30:30;13.55;;;7.47;;
71965;SDS011;59836;52.132;5.442;2023-05-14T06:32:56;12.50;;;7.15;;
71965;SDS011;59836;52.132;5.442;2023-05-14T06:35:23;9.88;;;6.75;;
71965;SDS011;59836;52.132;5.442;2023-05-14T06:37:49;12.05;;;6.82;;
71965;SDS011;59836;52.132;5.442;2023-05-14T06:40:16;10.97;;;6.63;;
71965;SDS011;59836;52.132;5.442;2023-05-14T06:42:42;11.30;;;7.28;;
71965;SDS011;59836;52.132;5.442;2023-05-14T06:45:09;13.52;;;7.03;;
71965;SDS011;59836;52.132;5.442;2023-05-14T06:47:36;11.32;;;7.03;;
71965;SDS011;59836;52.132;5.442;2023-05-14T06:50:02;12.77;;;7.65;;
71965;SDS011;59836;52.132;5.442;2023-05-14T06:52:29;15.07;;;8.00;;
71965;SDS011;59836;52.132;5.442;2023-05-14T06:54:55;9.38;;;6.63;;
71965;SDS011;59836;52.132;5.442;2023-05-14T06:57:22;13.82;;;7.32;;
71965;SDS011;59836;52.132;5.442;2023-05-14T06:59:48;12.10;;;5.93;;
71965;SDS011;59836;52.132;5.442;2023-05-14T07:02:14;15.40;;;7.43;;
71965;SDS011;59836;52.132;5.442;2023-05-14T07:04:41;11.83;;;7.37;;
71965;SDS011;59836;52.132;5.442;2023-05-14T07:07:07;10.13;;;6.95;;
71965;SDS011;59836;52.132;5.442;2023-05-14T07:09:35;13.18;;;6.50;;
71965;SDS011;59836;52.132;5.442;2023-05-14T07:12:02;11.75;;;7.20;;
71965;SDS011;59836;52.132;5.442;2023-05-14T07:14:28;11.05;;;6.88;;
71965;SDS011;59836;52.132;5.442;2023-05-14T07:16:55;11.63;;;6.43;;
71965;SDS011;59836;52.132;5.442;2023-05-14T07:19:22;12.40;;;6.88;;
71965;SDS011;59836;52.132;5.442;2023-05-14T07:21:48;13.57;;;6.80;;
71965;SDS011;59836;52.132;5.442;2023-05-14T07:24:15;11.25;;;7.07;;
71965;SDS011;59836;52.132;5.442;2023-05-14T07:26:42;11.18;;;7.20;;
71965;SDS011;59836;52.132;5.442;2023-05-14T07:29:08;11.73;;;6.57;;
71965;SDS011;59836;52.132;5.442;2023-05-14T07:31:35;10.55;;;6.05;;
71965;SDS011;59836;52.132;5.442;2023-05-14T07:34:01;10.50;;;6.22;;
71965;SDS011;59836;52.132;5.442;2023-05-14T07:36:27;13.18;;;6.68;;
71965;SDS011;59836;52.132;5.442;2023-05-14T07:38:54;11.52;;;6.72;;
71965;SDS011;59836;52.132;5.442;2023-05-14T07:41:20;12.47;;;6.40;;
71965;SDS011;59836;52.132;5.442;2023-05-14T07:43:47;10.10;;;6.90;;
71965;SDS011;59836;52.132;5.442;2023-05-14T07:46:13;12.55;;;7.30;;
71965;SDS011;59836;52.132;5.442;2023-05-14T07:48:40;12.70;;;6.88;;
71965;SDS011;59836;52.132;5.442;2023-05-14T07:51:06;13.27;;;6.88;;
71965;SDS011;59836;52.132;5.442;2023-05-14T07:53:32;12.03;;;7.93;;
71965;SDS011;59836;52.132;5.442;2023-05-14T07:55:59;13.70;;;7.70;;
71965;SDS011;59836;52.132;5.442;2023-05-14T07:58:25;11.13;;;7.03;;
71965;SDS011;59836;52.132;5.442;2023-05-14T08:00:53;15.70;;;7.88;;
71965;SDS011;59836;52.132;5.442;2023-05-14T08:03:19;10.02;;;7.47;;
71965;SDS011;59836;52.132;5.442;2023-05-14T08:05:46;12.93;;;7.33;;
71965;SDS011;59836;52.132;5.442;2023-05-14T08:08:12;12.75;;;7.35;;
71965;SDS011;59836;52.132;5.442;2023-05-14T08:10:39;12.30;;;7.50;;
71965;SDS011;59836;52.132;5.442;2023-05-14T08:13:05;13.90;;;7.57;;
71965;SDS011;59836;52.132;5.442;2023-05-14T08:15:32;12.95;;;8.73;;
71965;SDS011;59836;52.132;5.442;2023-05-14T08:17:58;13.67;;;7.83;;
71965;SDS011;59836;52.132;5.442;2023-05-14T08:20:29;11.00;;;7.32;;
71965;SDS011;59836;52.132;5.442;2023-05-14T08:22:56;12.43;;;7.07;;
71965;SDS011;59836;52.132;5.442;2023-05-14T08:25:26;12.07;;;8.20;;
71965;SDS011;59836;52.132;5.442;2023-05-14T08:27:52;14.27;;;8.25;;
71965;SDS011;59836;52.132;5.442;2023-05-14T08:30:19;12.83;;;7.80;;
71965;SDS011;59836;52.132;5.442;2023-05-14T08:32:48;14.38;;;8.35;;
71965;SDS011;59836;52.132;5.442;2023-05-14T08:35:14;14.45;;;8.43;;
71965;SDS011;59836;52.132;5.442;2023-05-14T08:37:41;13.15;;;8.68;;
71965;SDS011;59836;52.132;5.442;2023-05-14T08:40:08;14.88;;;8.75;;
71965;SDS011;59836;52.132;5.442;2023-05-14T08:42:35;12.50;;;8.67;;
71965;SDS011;59836;52.132;5.442;2023-05-14T08:45:05;11.60;;;9.05;;
71965;SDS011;59836;52.132;5.442;2023-05-14T08:47:40;11.20;;;7.88;;
71965;SDS011;59836;52.132;5.442;2023-05-14T08:50:09;11.82;;;8.05;;
71965;SDS011;59836;52.132;5.442;2023-05-14T08:52:36;11.18;;;7.53;;
71965;SDS011;59836;52.132;5.442;2023-05-14T08:55:03;11.93;;;7.53;;
71965;SDS011;59836;52.132;5.442;2023-05-14T08:57:31;13.20;;;7.57;;
71965;SDS011;59836;52.132;5.442;2023-05-14T08:59:59;9.88;;;7.25;;
71965;SDS011;59836;52.132;5.442;2023-05-14T09:02:27;13.32;;;8.20;;
71965;SDS011;59836;52.132;5.442;2023-05-14T09:04:56;11.10;;;8.00;;
71965;SDS011;59836;52.132;5.442;2023-05-14T09:07:24;12.47;;;8.10;;
71965;SDS011;59836;52.132;5.442;2023-05-14T09:09:51;11.90;;;7.28;;
71965;SDS011;59836;52.132;5.442;2023-05-14T09:12:18;11.60;;;7.32;;
71965;SDS011;59836;52.132;5.442;2023-05-14T09:14:46;10.57;;;7.40;;
71965;SDS011;59836;52.132;5.442;2023-05-14T09:17:13;10.65;;;7.50;;
71965;SDS011;59836;52.132;5.442;2023-05-14T09:19:40;9.87;;;7.47;;
71965;SDS011;59836;52.132;5.442;2023-05-14T09:22:10;12.55;;;8.07;;
71965;SDS011;59836;52.132;5.442;2023-05-14T09:24:38;12.13;;;7.20;;
71965;SDS011;59836;52.132;5.442;2023-05-14T09:27:05;12.63;;;7.03;;
71965;SDS011;59836;52.132;5.442;2023-05-14T09:29:32;9.80;;;7.95;;
71965;SDS011;59836;52.132;5.442;2023-05-14T09:31:59;9.50;;;6.20;;
71965;SDS011;59836;52.132;5.442;2023-05-14T09:34:32;12.77;;;7.28;;
71965;SDS011;59836;52.132;5.442;2023-05-14T09:37:03;9.27;;;6.57;;
71965;SDS011;59836;52.132;5.442;2023-05-14T09:39:31;11.18;;;7.10;;
71965;SDS011;59836;52.132;5.442;2023-05-14T09:41:59;11.75;;;7.30;;
71965;SDS011;59836;52.132;5.442;2023-05-14T09:44:26;9.37;;;6.97;;
71965;SDS011;59836;52.132;5.442;2023-05-14T09:46:53;11.20;;;7.00;;
71965;SDS011;59836;52.132;5.442;2023-05-14T09:49:20;10.07;;;7.53;;
71965;SDS011;59836;52.132;5.442;2023-05-14T09:51:49;9.32;;;7.05;;
71965;SDS011;59836;52.132;5.442;2023-05-14T09:54:16;10.30;;;7.82;;
71965;SDS011;59836;52.132;5.442;2023-05-14T09:56:42;10.10;;;6.87;;
71965;SDS011;59836;52.132;5.442;2023-05-14T09:59:09;10.60;;;6.13;;
71965;SDS011;59836;52.132;5.442;2023-05-14T10:01:36;8.88;;;6.43;;
71965;SDS011;59836;52.132;5.442;2023-05-14T10:04:04;10.45;;;7.00;;
71965;SDS011;59836;52.132;5.442;2023-05-14T10:06:32;9.80;;;6.72;;
71965;SDS011;59836;52.132;5.442;2023-05-14T10:09:02;12.97;;;6.83;;
71965;SDS011;59836;52.132;5.442;2023-05-14T10:11:32;9.15;;;7.05;;
71965;SDS011;59836;52.132;5.442;2023-05-14T10:14:06;9.88;;;7.05;;
71965;SDS011;59836;52.132;5.442;2023-05-14T10:16:35;12.13;;;6.13;;
71965;SDS011;59836;52.132;5.442;2023-05-14T10:19:09;10.82;;;6.05;;
71965;SDS011;59836;52.132;5.442;2023-05-14T10:21:37;13.03;;;6.73;;
71965;SDS011;59836;52.132;5.442;2023-05-14T10:24:06;11.82;;;6.32;;
71965;SDS011;59836;52.132;5.442;2023-05-14T10:26:36;11.48;;;6.78;;
71965;SDS011;59836;52.132;5.442;2023-05-14T10:29:04;10.65;;;6.38;;
71965;SDS011;59836;52.132;5.442;2023-05-14T10:34:29;8.53;;;6.60;;
71965;SDS011;59836;52.132;5.442;2023-05-14T10:37:03;9.88;;;6.95;;
71965;SDS011;59836;52.132;5.442;2023-05-14T10:39:43;9.07;;;6.68;;
71965;SDS011;59836;52.132;5.442;2023-05-14T10:44:59;9.23;;;6.13;;
71965;SDS011;59836;52.132;5.442;2023-05-14T10:47:27;9.93;;;6.70;;
71965;SDS011;59836;52.132;5.442;2023-05-14T10:49:54;11.05;;;6.32;;
71965;SDS011;59836;52.132;5.442;2023-05-14T10:52:23;7.72;;;5.65;;
71965;SDS011;59836;52.132;5.442;2023-05-14T10:54:53;9.15;;;5.88;;
71965;SDS011;59836;52.132;5.442;2023-05-14T10:57:22;11.68;;;5.90;;
71965;SDS011;59836;52.132;5.442;2023-05-14T10:59:50;9.53;;;5.77;;
71965;SDS011;59836;52.132;5.442;2023-05-14T11:02:24;12.15;;;6.65;;
71965;SDS011;59836;52.132;5.442;2023-05-14T11:04:53;12.38;;;6.57;;
71965;SDS011;59836;52.132;5.442;2023-05-14T11:07:22;10.13;;;6.45;;
71965;SDS011;59836;52.132;5.442;2023-05-14T11:10:00;11.52;;;6.10;;
71965;SDS011;59836;52.132;5.442;2023-05-14T11:12:28;9.93;;;6.30;;
71965;SDS011;59836;52.132;5.442;2023-05-14T11:14:55;9.05;;;7.20;;
71965;SDS011;59836;52.132;5.442;2023-05-14T11:17:24;9.65;;;6.63;;
71965;SDS011;59836;52.132;5.442;2023-05-14T11:19:55;8.95;;;5.85;;
71965;SDS011;59836;52.132;5.442;2023-05-14T11:22:22;9.82;;;6.53;;
71965;SDS011;59836;52.132;5.442;2023-05-14T11:24:49;8.97;;;6.70;;
71965;SDS011;59836;52.132;5.442;2023-05-14T11:27:16;7.80;;;6.07;;
71965;SDS011;59836;52.132;5.442;2023-05-14T11:29:44;11.13;;;6.00;;
71965;SDS011;59836;52.132;5.442;2023-05-14T11:32:12;9.65;;;5.75;;
71965;SDS011;59836;52.132;5.442;2023-05-14T11:34:40;12.13;;;6.28;;
71965;SDS011;59836;52.132;5.442;2023-05-14T11:37:08;10.27;;;6.53;;
71965;SDS011;59836;52.132;5.442;2023-05-14T11:39:35;9.63;;;6.07;;
71965;SDS011;59836;52.132;5.442;2023-05-14T11:42:08;8.13;;;5.53;;
71965;SDS011;59836;52.132;5.442;2023-05-14T11:44:37;6.07;;;4.97;;
71965;SDS011;59836;52.132;5.442;2023-05-14T11:47:04;10.27;;;5.30;;
71965;SDS011;59836;52.132;5.442;2023-05-14T11:49:30;6.27;;;5.03;;
71965;SDS011;59836;52.132;5.442;2023-05-14T11:51:57;9.60;;;5.88;;
71965;SDS011;59836;52.132;5.442;2023-05-14T11:54:25;8.18;;;5.45;;
71965;SDS011;59836;52.132;5.442;2023-05-14T11:56:53;9.57;;;5.50;;
71965;SDS011;59836;52.132;5.442;2023-05-14T11:59:24;11.32;;;5.80;;
71965;SDS011;59836;52.132;5.442;2023-05-14T12:01:53;9.60;;;5.80;;
71965;SDS011;59836;52.132;5.442;2023-05-14T12:04:20;10.90;;;5.82;;
71965;SDS011;59836;52.132;5.442;2023-05-14T12:06:48;9.02;;;5.20;;
71965;SDS011;59836;52.132;5.442;2023-05-14T12:09:16;8.45;;;4.95;;
71965;SDS011;59836;52.132;5.442;2023-05-14T12:11:43;8.40;;;5.63;;
71965;SDS011;59836;52.132;5.442;2023-05-14T12:14:14;9.80;;;5.63;;
71965;SDS011;59836;52.132;5.442;2023-05-14T12:16:42;8.32;;;5.65;;
71965;SDS011;59836;52.132;5.442;2023-05-14T12:19:10;10.40;;;4.75;;
71965;SDS011;59836;52.132;5.442;2023-05-14T12:21:37;7.70;;;5.50;;
71965;SDS011;59836;52.132;5.442;2023-05-14T12:24:04;7.75;;;5.40;;
71965;SDS011;59836;52.132;5.442;2023-05-14T12:26:34;7.03;;;5.07;;
71965;SDS011;59836;52.132;5.442;2023-05-14T12:29:00;11.27;;;5.65;;
71965;SDS011;59836;52.132;5.442;2023-05-14T12:31:29;8.10;;;4.90;;
71965;SDS011;59836;52.132;5.442;2023-05-14T12:33:56;8.48;;;4.88;;
71965;SDS011;59836;52.132;5.442;2023-05-14T12:36:23;8.30;;;4.85;;
71965;SDS011;59836;52.132;5.442;2023-05-14T12:38:49;8.33;;;5.30;;
71965;SDS011;59836;52.132;5.442;2023-05-14T12:41:22;10.88;;;5.72;;
71965;SDS011;59836;52.132;5.442;2023-05-14T12:43:48;9.00;;;5.10;;
71965;SDS011;59836;52.132;5.442;2023-05-14T12:46:14;7.05;;;4.80;;
71965;SDS011;59836;52.132;5.442;2023-05-14T12:48:42;6.95;;;5.45;;
71965;SDS011;59836;52.132;5.442;2023-05-14T12:51:08;8.53;;;5.60;;
71965;SDS011;59836;52.132;5.442;2023-05-14T12:53:34;8.05;;;5.35;;
71965;SDS011;59836;52.132;5.442;2023-05-14T12:56:01;8.90;;;4.82;;
71965;SDS011;59836;52.132;5.442;2023-05-14T12:58:27;7.85;;;5.53;;
71965;SDS011;59836;52.132;5.442;2023-05-14T13:00:54;6.68;;;5.03;;
71965;SDS011;59836;52.132;5.442;2023-05-14T13:03:21;6.50;;;5.33;;
71965;SDS011;59836;52.132;5.442;2023-05-14T13:05:49;6.30;;;5.32;;
71965;SDS011;59836;52.132;5.442;2023-05-14T13:08:17;8.32;;;5.07;;
71965;SDS011;59836;52.132;5.442;2023-05-14T13:10:46;9.27;;;5.43;;
71965;SDS011;59836;52.132;5.442;2023-05-14T13:13:14;9.20;;;4.90;;
71965;SDS011;59836;52.132;5.442;2023-05-14T13:15:41;8.40;;;5.40;;
71965;SDS011;59836;52.132;5.442;2023-05-14T13:18:07;11.05;;;6.07;;
71965;SDS011;59836;52.132;5.442;2023-05-14T13:20:34;6.72;;;4.82;;
71965;SDS011;59836;52.132;5.442;2023-05-14T13:23:00;8.90;;;4.13;;
71965;SDS011;59836;52.132;5.442;2023-05-14T13:25:27;8.48;;;5.30;;
71965;SDS011;59836;52.132;5.442;2023-05-14T13:27:53;10.60;;;5.50;;
71965;SDS011;59836;52.132;5.442;2023-05-14T13:30:20;7.18;;;4.55;;
71965;SDS011;59836;52.132;5.442;2023-05-14T13:32:46;7.57;;;4.90;;
71965;SDS011;59836;52.132;5.442;2023-05-14T13:35:13;11.00;;;5.20;;
71965;SDS011;59836;52.132;5.442;2023-05-14T13:37:41;10.10;;;5.35;;
71965;SDS011;59836;52.132;5.442;2023-05-14T13:40:08;9.60;;;4.90;;
71965;SDS011;59836;52.132;5.442;2023-05-14T13:42:35;7.25;;;4.97;;
71965;SDS011;59836;52.132;5.442;2023-05-14T13:45:02;8.65;;;4.25;;
71965;SDS011;59836;52.132;5.442;2023-05-14T13:47:29;9.15;;;4.75;;
71965;SDS011;59836;52.132;5.442;2023-05-14T13:49:56;9.73;;;5.20;;
71965;SDS011;59836;52.132;5.442;2023-05-14T13:52:22;6.57;;;3.80;;
71965;SDS011;59836;52.132;5.442;2023-05-14T13:54:49;7.13;;;5.20;;
71965;SDS011;59836;52.132;5.442;2023-05-14T13:57:15;8.07;;;4.88;;
71965;SDS011;59836;52.132;5.442;2023-05-14T13:59:41;7.55;;;5.88;;
71965;SDS011;59836;52.132;5.442;2023-05-14T14:02:08;8.20;;;5.40;;
71965;SDS011;59836;52.132;5.442;2023-05-14T14:04:34;8.33;;;5.30;;
71965;SDS011;59836;52.132;5.442;2023-05-14T14:07:00;6.68;;;4.35;;
71965;SDS011;59836;52.132;5.442;2023-05-14T14:09:27;11.60;;;5.82;;
71965;SDS011;59836;52.132;5.442;2023-05-14T14:11:53;9.25;;;5.30;;
71965;SDS011;59836;52.132;5.442;2023-05-14T14:14:20;8.95;;;5.22;;
71965;SDS011;59836;52.132;5.442;2023-05-14T14:16:46;11.30;;;5.53;;
71965;SDS011;59836;52.132;5.442;2023-05-14T14:19:12;7.30;;;4.90;;
71965;SDS011;59836;52.132;5.442;2023-05-14T14:21:42;10.73;;;5.18;;
71965;SDS011;59836;52.132;5.442;2023-05-14T14:24:08;8.75;;;5.05;;
71965;SDS011;59836;52.132;5.442;2023-05-14T14:26:34;7.30;;;5.10;;
71965;SDS011;59836;52.132;5.442;2023-05-14T14:29:01;8.70;;;4.70;;
71965;SDS011;59836;52.132;5.442;2023-05-14T14:31:27;7.03;;;5.22;;
71965;SDS011;59836;52.132;5.442;2023-05-14T14:33:54;8.32;;;4.53;;
71965;SDS011;59836;52.132;5.442;2023-05-14T14:36:20;8.63;;;5.13;;
71965;SDS011;59836;52.132;5.442;2023-05-14T14:38:47;10.25;;;4.70;;
71965;SDS011;59836;52.132;5.442;2023-05-14T14:41:13;7.93;;;4.80;;
71965;SDS011;59836;52.132;5.442;2023-05-14T14:43:39;8.82;;;5.07;;
71965;SDS011;59836;52.132;5.442;2023-05-14T14:46:07;7.18;;;4.95;;
71965;SDS011;59836;52.132;5.442;2023-05-14T14:48:34;9.80;;;4.80;;